sensor_id;sensor_type;location;lat;lon;timestamp;pressure;altitude;pressure_sealevel;temperature
67822;BMP180;54434;50.096;20.082;2023-01-23T00:00:14;100222.40;;;1.50
67822;BMP180;54434;50.096;20.082;2023-01-23T00:03:09;100227.20;;;1.50
67822;BMP180;54434;50.096;20.082;2023-01-23T00:05:43;100231.60;;;1.50
67822;BMP180;54434;50.096;20.082;2023-01-23T00:08:18;100233.80;;;1.50
67822;BMP180;54434;50.096;20.082;2023-01-23T00:10:53;100232.60;;;1.50
67822;BMP180;54434;50.096;20.082;2023-01-23T00:13:28;100233.80;;;1.50
67822;BMP180;54434;50.096;20.082;2023-01-23T00:16:08;100240.20;;;1.56
67822;BMP180;54434;50.096;20.082;2023-01-23T00:18:43;100244.00;;;1.60
67822;BMP180;54434;50.096;20.082;2023-01-23T00:21:20;100242.00;;;1.50
67822;BMP180;54434;50.096;20.082;2023-01-23T00:23:57;100248.00;;;1.50
67822;BMP180;54434;50.096;20.082;2023-01-23T00:26:35;100251.80;;;1.50
67822;BMP180;54434;50.096;20.082;2023-01-23T00:29:10;100254.20;;;1.48
67822;BMP180;54434;50.096;20.082;2023-01-23T00:31:47;100257.80;;;1.42
67822;BMP180;54434;50.096;20.082;2023-01-23T00:34:22;100262.40;;;1.46
67822;BMP180;54434;50.096;20.082;2023-01-23T00:36:57;100272.60;;;1.50
67822;BMP180;54434;50.096;20.082;2023-01-23T00:39:32;100273.80;;;1.50
67822;BMP180;54434;50.096;20.082;2023-01-23T00:42:07;100273.60;;;1.50
67822;BMP180;54434;50.096;20.082;2023-01-23T00:44:42;100270.80;;;1.50
67822;BMP180;54434;50.096;20.082;2023-01-23T00:47:16;100278.80;;;1.50
67822;BMP180;54434;50.096;20.082;2023-01-23T00:49:51;100275.40;;;1.50
67822;BMP180;54434;50.096;20.082;2023-01-23T00:52:27;100274.20;;;1.50
67822;BMP180;54434;50.096;20.082;2023-01-23T00:55:03;100276.80;;;1.50
67822;BMP180;54434;50.096;20.082;2023-01-23T00:57:38;100283.40;;;1.50
67822;BMP180;54434;50.096;20.082;2023-01-23T01:00:15;100283.60;;;1.50
67822;BMP180;54434;50.096;20.082;2023-01-23T01:02:50;100284.80;;;1.50
67822;BMP180;54434;50.096;20.082;2023-01-23T01:05:26;100285.40;;;1.50
67822;BMP180;54434;50.096;20.082;2023-01-23T01:08:01;100282.60;;;1.50
67822;BMP180;54434;50.096;20.082;2023-01-23T01:10:36;100282.80;;;1.50
67822;BMP180;54434;50.096;20.082;2023-01-23T01:13:13;100288.60;;;1.50
67822;BMP180;54434;50.096;20.082;2023-01-23T01:15:52;100296.40;;;1.50
67822;BMP180;54434;50.096;20.082;2023-01-23T01:18:28;100300.40;;;1.50
67822;BMP180;54434;50.096;20.082;2023-01-23T01:21:06;100295.20;;;1.46
67822;BMP180;54434;50.096;20.082;2023-01-23T01:23:41;100293.80;;;1.44
67822;BMP180;54434;50.096;20.082;2023-01-23T01:26:16;100295.00;;;1.40
67822;BMP180;54434;50.096;20.082;2023-01-23T01:28:51;100291.60;;;1.40
67822;BMP180;54434;50.096;20.082;2023-01-23T01:31:26;100297.20;;;1.42
67822;BMP180;54434;50.096;20.082;2023-01-23T01:34:01;100293.20;;;1.46
67822;BMP180;54434;50.096;20.082;2023-01-23T01:36:35;100300.40;;;1.44
67822;BMP180;54434;50.096;20.082;2023-01-23T01:39:10;100302.20;;;1.50
67822;BMP180;54434;50.096;20.082;2023-01-23T01:41:47;100304.40;;;1.50
67822;BMP180;54434;50.096;20.082;2023-01-23T01:44:24;100303.60;;;1.50
67822;BMP180;54434;50.096;20.082;2023-01-23T01:47:00;100305.00;;;1.48
67822;BMP180;54434;50.096;20.082;2023-01-23T01:49:36;100303.80;;;1.40
67822;BMP180;54434;50.096;20.082;2023-01-23T01:52:12;100303.40;;;1.40
67822;BMP180;54434;50.096;20.082;2023-01-23T01:54:49;100295.60;;;1.40
67822;BMP180;54434;50.096;20.082;2023-01-23T01:57:29;100293.80;;;1.40
67822;BMP180;54434;50.096;20.082;2023-01-23T02:00:10;100288.20;;;1.40
67822;BMP180;54434;50.096;20.082;2023-01-23T02:02:53;100290.60;;;1.40
67822;BMP180;54434;50.096;20.082;2023-01-23T02:05:37;100287.60;;;1.32
67822;BMP180;54434;50.096;20.082;2023-01-23T02:08:16;100295.20;;;1.30
67822;BMP180;54434;50.096;20.082;2023-01-23T02:10:52;100302.20;;;1.30
67822;BMP180;54434;50.096;20.082;2023-01-23T02:13:30;100306.40;;;1.30
67822;BMP180;54434;50.096;20.082;2023-01-23T02:16:13;100306.00;;;1.32
67822;BMP180;54434;50.096;20.082;2023-01-23T02:18:51;100306.60;;;1.34
67822;BMP180;54434;50.096;20.082;2023-01-23T02:21:27;100303.00;;;1.36
67822;BMP180;54434;50.096;20.082;2023-01-23T02:24:16;100304.60;;;1.30
67822;BMP180;54434;50.096;20.082;2023-01-23T02:26:53;100306.20;;;1.30
67822;BMP180;54434;50.096;20.082;2023-01-23T02:29:41;100314.20;;;1.30
67822;BMP180;54434;50.096;20.082;2023-01-23T02:32:16;100320.00;;;1.30
67822;BMP180;54434;50.096;20.082;2023-01-23T02:34:56;100317.00;;;1.30
67822;BMP180;54434;50.096;20.082;2023-01-23T02:37:32;100312.20;;;1.30
67822;BMP180;54434;50.096;20.082;2023-01-23T02:40:11;100306.80;;;1.30
67822;BMP180;54434;50.096;20.082;2023-01-23T02:42:46;100302.80;;;1.30
67822;BMP180;54434;50.096;20.082;2023-01-23T02:45:22;100301.40;;;1.30
67822;BMP180;54434;50.096;20.082;2023-01-23T02:47:58;100306.00;;;1.30
67822;BMP180;54434;50.096;20.082;2023-01-23T02:50:34;100304.80;;;1.30
67822;BMP180;54434;50.096;20.082;2023-01-23T02:53:09;100308.00;;;1.30
67822;BMP180;54434;50.096;20.082;2023-01-23T02:55:43;100309.80;;;1.30
67822;BMP180;54434;50.096;20.082;2023-01-23T02:58:19;100315.20;;;1.30
67822;BMP180;54434;50.096;20.082;2023-01-23T03:01:11;100320.00;;;1.30
67822;BMP180;54434;50.096;20.082;2023-01-23T03:03:46;100326.00;;;1.32
67822;BMP180;54434;50.096;20.082;2023-01-23T03:06:24;100334.40;;;1.40
67822;BMP180;54434;50.096;20.082;2023-01-23T03:08:58;100331.00;;;1.40
67822;BMP180;54434;50.096;20.082;2023-01-23T03:11:37;100334.60;;;1.40
67822;BMP180;54434;50.096;20.082;2023-01-23T03:14:17;100336.80;;;1.40
67822;BMP180;54434;50.096;20.082;2023-01-23T03:16:52;100339.20;;;1.40
67822;BMP180;54434;50.096;20.082;2023-01-23T03:19:29;100337.40;;;1.40
67822;BMP180;54434;50.096;20.082;2023-01-23T03:22:04;100335.00;;;1.40
67822;BMP180;54434;50.096;20.082;2023-01-23T03:24:39;100334.20;;;1.40
67822;BMP180;54434;50.096;20.082;2023-01-23T03:27:14;100335.80;;;1.40
67822;BMP180;54434;50.096;20.082;2023-01-23T03:29:52;100340.20;;;1.40
67822;BMP180;54434;50.096;20.082;2023-01-23T03:32:46;100338.60;;;1.40
67822;BMP180;54434;50.096;20.082;2023-01-23T03:35:21;100338.60;;;1.40
67822;BMP180;54434;50.096;20.082;2023-01-23T03:37:57;100339.00;;;1.40
67822;BMP180;54434;50.096;20.082;2023-01-23T03:40:33;100343.40;;;1.40
67822;BMP180;54434;50.096;20.082;2023-01-23T03:43:31;100340.40;;;1.40
67822;BMP180;54434;50.096;20.082;2023-01-23T03:46:06;100341.60;;;1.42
67822;BMP180;54434;50.096;20.082;2023-01-23T03:48:41;100341.20;;;1.50
67822;BMP180;54434;50.096;20.082;2023-01-23T03:51:15;100349.00;;;1.50
67822;BMP180;54434;50.096;20.082;2023-01-23T03:53:50;100349.80;;;1.50
67822;BMP180;54434;50.096;20.082;2023-01-23T03:56:25;100350.20;;;1.50
67822;BMP180;54434;50.096;20.082;2023-01-23T03:59:01;100356.80;;;1.50
67822;BMP180;54434;50.096;20.082;2023-01-23T04:01:36;100362.80;;;1.50
67822;BMP180;54434;50.096;20.082;2023-01-23T04:04:11;100369.20;;;1.50
67822;BMP180;54434;50.096;20.082;2023-01-23T04:06:46;100373.80;;;1.50
67822;BMP180;54434;50.096;20.082;2023-01-23T04:09:21;100378.40;;;1.50
67822;BMP180;54434;50.096;20.082;2023-01-23T04:12:01;100376.80;;;1.50
67822;BMP180;54434;50.096;20.082;2023-01-23T04:14:38;100376.60;;;1.50
67822;BMP180;54434;50.096;20.082;2023-01-23T04:17:13;100376.40;;;1.50
67822;BMP180;54434;50.096;20.082;2023-01-23T04:19:48;100375.20;;;1.50
67822;BMP180;54434;50.096;20.082;2023-01-23T04:22:23;100377.00;;;1.50
67822;BMP180;54434;50.096;20.082;2023-01-23T04:24:57;100381.80;;;1.50
67822;BMP180;54434;50.096;20.082;2023-01-23T04:27:33;100377.00;;;1.50
67822;BMP180;54434;50.096;20.082;2023-01-23T04:30:13;100380.80;;;1.50
67822;BMP180;54434;50.096;20.082;2023-01-23T04:32:47;100377.00;;;1.50
67822;BMP180;54434;50.096;20.082;2023-01-23T04:35:23;100383.80;;;1.50
67822;BMP180;54434;50.096;20.082;2023-01-23T04:37:58;100387.00;;;1.50
67822;BMP180;54434;50.096;20.082;2023-01-23T04:40:33;100387.20;;;1.50
67822;BMP180;54434;50.096;20.082;2023-01-23T04:43:09;100392.20;;;1.50
67822;BMP180;54434;50.096;20.082;2023-01-23T04:45:50;100393.40;;;1.50
67822;BMP180;54434;50.096;20.082;2023-01-23T04:48:55;100397.80;;;1.50
67822;BMP180;54434;50.096;20.082;2023-01-23T04:51:30;100394.80;;;1.50
67822;BMP180;54434;50.096;20.082;2023-01-23T04:54:05;100401.20;;;1.52
67822;BMP180;54434;50.096;20.082;2023-01-23T04:56:40;100403.40;;;1.54
67822;BMP180;54434;50.096;20.082;2023-01-23T04:59:15;100403.40;;;1.60
67822;BMP180;54434;50.096;20.082;2023-01-23T05:01:50;100400.80;;;1.60
67822;BMP180;54434;50.096;20.082;2023-01-23T05:04:26;100398.40;;;1.60
67822;BMP180;54434;50.096;20.082;2023-01-23T05:07:01;100392.80;;;1.56
67822;BMP180;54434;50.096;20.082;2023-01-23T05:09:38;100399.40;;;1.50
67822;BMP180;54434;50.096;20.082;2023-01-23T05:12:13;100404.40;;;1.50
67822;BMP180;54434;50.096;20.082;2023-01-23T05:14:48;100406.60;;;1.50
67822;BMP180;54434;50.096;20.082;2023-01-23T05:17:23;100403.40;;;1.50
67822;BMP180;54434;50.096;20.082;2023-01-23T05:19:59;100398.80;;;1.50
67822;BMP180;54434;50.096;20.082;2023-01-23T05:22:33;100397.60;;;1.48
67822;BMP180;54434;50.096;20.082;2023-01-23T05:25:10;100401.20;;;1.40
67822;BMP180;54434;50.096;20.082;2023-01-23T05:27:45;100403.20;;;1.40
67822;BMP180;54434;50.096;20.082;2023-01-23T05:30:21;100399.00;;;1.40
67822;BMP180;54434;50.096;20.082;2023-01-23T05:32:58;100397.40;;;1.46
67822;BMP180;54434;50.096;20.082;2023-01-23T05:35:33;100392.80;;;1.40
67822;BMP180;54434;50.096;20.082;2023-01-23T05:38:08;100395.60;;;1.40
67822;BMP180;54434;50.096;20.082;2023-01-23T05:40:43;100402.40;;;1.40
67822;BMP180;54434;50.096;20.082;2023-01-23T05:43:20;100404.00;;;1.40
67822;BMP180;54434;50.096;20.082;2023-01-23T05:46:30;100413.00;;;1.40
67822;BMP180;54434;50.096;20.082;2023-01-23T05:49:05;100419.80;;;1.46
67822;BMP180;54434;50.096;20.082;2023-01-23T05:51:40;100425.80;;;1.50
67822;BMP180;54434;50.096;20.082;2023-01-23T05:54:16;100421.20;;;1.50
67822;BMP180;54434;50.096;20.082;2023-01-23T05:56:52;100425.80;;;1.50
67822;BMP180;54434;50.096;20.082;2023-01-23T05:59:46;100432.60;;;1.50
67822;BMP180;54434;50.096;20.082;2023-01-23T06:02:35;100439.00;;;1.50
67822;BMP180;54434;50.096;20.082;2023-01-23T06:05:16;100441.00;;;1.50
67822;BMP180;54434;50.096;20.082;2023-01-23T06:08:17;100445.80;;;1.50
67822;BMP180;54434;50.096;20.082;2023-01-23T06:10:51;100449.40;;;1.52
67822;BMP180;54434;50.096;20.082;2023-01-23T06:13:26;100457.20;;;1.60
67822;BMP180;54434;50.096;20.082;2023-01-23T06:16:01;100462.20;;;1.60
67822;BMP180;54434;50.096;20.082;2023-01-23T06:18:36;100463.40;;;1.60
67822;BMP180;54434;50.096;20.082;2023-01-23T06:21:11;100472.20;;;1.60
67822;BMP180;54434;50.096;20.082;2023-01-23T06:23:45;100468.20;;;1.60
67822;BMP180;54434;50.096;20.082;2023-01-23T06:26:20;100469.60;;;1.60
67822;BMP180;54434;50.096;20.082;2023-01-23T06:28:55;100472.20;;;1.60
67822;BMP180;54434;50.096;20.082;2023-01-23T06:31:30;100470.40;;;1.60
67822;BMP180;54434;50.096;20.082;2023-01-23T06:34:06;100474.00;;;1.60
67822;BMP180;54434;50.096;20.082;2023-01-23T06:36:46;100472.60;;;1.60
67822;BMP180;54434;50.096;20.082;2023-01-23T06:39:21;100475.80;;;1.60
67822;BMP180;54434;50.096;20.082;2023-01-23T06:41:56;100477.00;;;1.60
67822;BMP180;54434;50.096;20.082;2023-01-23T06:44:31;100483.60;;;1.60
67822;BMP180;54434;50.096;20.082;2023-01-23T06:47:06;100486.00;;;1.60
67822;BMP180;54434;50.096;20.082;2023-01-23T06:49:41;100488.20;;;1.66
67822;BMP180;54434;50.096;20.082;2023-01-23T06:52:16;100488.20;;;1.70
67822;BMP180;54434;50.096;20.082;2023-01-23T06:54:52;100486.80;;;1.70
67822;BMP180;54434;50.096;20.082;2023-01-23T06:57:26;100486.40;;;1.70
67822;BMP180;54434;50.096;20.082;2023-01-23T07:00:02;100490.20;;;1.76
67822;BMP180;54434;50.096;20.082;2023-01-23T07:02:39;100491.40;;;1.80
67822;BMP180;54434;50.096;20.082;2023-01-23T07:05:16;100492.80;;;1.80
67822;BMP180;54434;50.096;20.082;2023-01-23T07:07:53;100497.40;;;1.80
67822;BMP180;54434;50.096;20.082;2023-01-23T07:10:28;100499.00;;;1.80
67822;BMP180;54434;50.096;20.082;2023-01-23T07:13:06;100498.80;;;1.80
67822;BMP180;54434;50.096;20.082;2023-01-23T07:15:41;100496.00;;;1.80
67822;BMP180;54434;50.096;20.082;2023-01-23T07:18:19;100500.80;;;1.80
67822;BMP180;54434;50.096;20.082;2023-01-23T07:20:54;100505.00;;;1.80
67822;BMP180;54434;50.096;20.082;2023-01-23T07:23:29;100510.00;;;1.80
67822;BMP180;54434;50.096;20.082;2023-01-23T07:26:05;100506.60;;;1.80
67822;BMP180;54434;50.096;20.082;2023-01-23T07:28:41;100504.00;;;1.80
67822;BMP180;54434;50.096;20.082;2023-01-23T07:31:16;100510.20;;;1.74
67822;BMP180;54434;50.096;20.082;2023-01-23T07:33:51;100506.20;;;1.80
67822;BMP180;54434;50.096;20.082;2023-01-23T07:36:26;100504.60;;;1.78
67822;BMP180;54434;50.096;20.082;2023-01-23T07:39:00;100510.00;;;1.80
67822;BMP180;54434;50.096;20.082;2023-01-23T07:41:35;100507.60;;;1.80
67822;BMP180;54434;50.096;20.082;2023-01-23T07:44:17;100515.40;;;1.80
67822;BMP180;54434;50.096;20.082;2023-01-23T07:46:52;100508.40;;;1.80
67822;BMP180;54434;50.096;20.082;2023-01-23T07:49:27;100512.80;;;1.80
67822;BMP180;54434;50.096;20.082;2023-01-23T07:52:02;100518.40;;;1.88
67822;BMP180;54434;50.096;20.082;2023-01-23T07:54:37;100525.20;;;1.90
67822;BMP180;54434;50.096;20.082;2023-01-23T07:57:12;100533.40;;;1.90
67822;BMP180;54434;50.096;20.082;2023-01-23T07:59:47;100533.00;;;1.90
67822;BMP180;54434;50.096;20.082;2023-01-23T08:02:22;100534.00;;;1.90
67822;BMP180;54434;50.096;20.082;2023-01-23T08:04:56;100537.60;;;1.90
67822;BMP180;54434;50.096;20.082;2023-01-23T08:07:31;100544.40;;;1.98
67822;BMP180;54434;50.096;20.082;2023-01-23T08:10:08;100546.00;;;2.00
67822;BMP180;54434;50.096;20.082;2023-01-23T08:12:43;100550.20;;;2.00
67822;BMP180;54434;50.096;20.082;2023-01-23T08:15:18;100551.60;;;2.10
67822;BMP180;54434;50.096;20.082;2023-01-23T08:17:53;100548.80;;;2.10
67822;BMP180;54434;50.096;20.082;2023-01-23T08:20:28;100547.20;;;2.10
67822;BMP180;54434;50.096;20.082;2023-01-23T08:23:03;100546.00;;;2.20
67822;BMP180;54434;50.096;20.082;2023-01-23T08:25:39;100544.40;;;2.20
67822;BMP180;54434;50.096;20.082;2023-01-23T08:28:14;100544.00;;;2.20
67822;BMP180;54434;50.096;20.082;2023-01-23T08:30:49;100548.40;;;2.20
67822;BMP180;54434;50.096;20.082;2023-01-23T08:33:24;100548.40;;;2.20
67822;BMP180;54434;50.096;20.082;2023-01-23T08:35:59;100550.00;;;2.24
67822;BMP180;54434;50.096;20.082;2023-01-23T08:38:34;100552.20;;;2.30
67822;BMP180;54434;50.096;20.082;2023-01-23T08:41:10;100553.60;;;2.30
67822;BMP180;54434;50.096;20.082;2023-01-23T08:43:45;100557.20;;;2.30
67822;BMP180;54434;50.096;20.082;2023-01-23T08:46:20;100562.20;;;2.40
67822;BMP180;54434;50.096;20.082;2023-01-23T08:48:55;100563.40;;;2.40
67822;BMP180;54434;50.096;20.082;2023-01-23T08:51:29;100564.00;;;2.40
67822;BMP180;54434;50.096;20.082;2023-01-23T08:54:04;100564.20;;;2.50
67822;BMP180;54434;50.096;20.082;2023-01-23T08:56:39;100565.00;;;2.50
67822;BMP180;54434;50.096;20.082;2023-01-23T08:59:14;100569.80;;;2.58
67822;BMP180;54434;50.096;20.082;2023-01-23T09:01:49;100573.60;;;2.60
67822;BMP180;54434;50.096;20.082;2023-01-23T09:04:24;100573.60;;;2.62
67822;BMP180;54434;50.096;20.082;2023-01-23T09:06:59;100568.20;;;2.70
67822;BMP180;54434;50.096;20.082;2023-01-23T09:09:34;100569.00;;;2.70
67822;BMP180;54434;50.096;20.082;2023-01-23T09:12:09;100563.40;;;2.70
67822;BMP180;54434;50.096;20.082;2023-01-23T09:14:44;100559.80;;;2.80
67822;BMP180;54434;50.096;20.082;2023-01-23T09:17:19;100554.80;;;2.86
67822;BMP180;54434;50.096;20.082;2023-01-23T09:19:54;100547.00;;;2.90
67822;BMP180;54434;50.096;20.082;2023-01-23T09:22:32;100539.20;;;3.00
67822;BMP180;54434;50.096;20.082;2023-01-23T09:25:09;100531.40;;;3.06
67822;BMP180;54434;50.096;20.082;2023-01-23T09:27:44;100529.40;;;3.10
67822;BMP180;54434;50.096;20.082;2023-01-23T09:30:20;100522.80;;;3.20
67822;BMP180;54434;50.096;20.082;2023-01-23T09:32:56;100524.80;;;3.20
67822;BMP180;54434;50.096;20.082;2023-01-23T09:35:31;100527.60;;;3.30
67822;BMP180;54434;50.096;20.082;2023-01-23T09:38:06;100527.20;;;3.30
67822;BMP180;54434;50.096;20.082;2023-01-23T09:40:49;100527.40;;;3.30
67822;BMP180;54434;50.096;20.082;2023-01-23T09:43:32;100529.40;;;3.40
67822;BMP180;54434;50.096;20.082;2023-01-23T09:46:17;100532.80;;;3.40
67822;BMP180;54434;50.096;20.082;2023-01-23T09:48:58;100533.20;;;3.40
67822;BMP180;54434;50.096;20.082;2023-01-23T09:51:43;100532.40;;;3.40
67822;BMP180;54434;50.096;20.082;2023-01-23T09:54:31;100539.40;;;3.40
67822;BMP180;54434;50.096;20.082;2023-01-23T09:57:14;100539.80;;;3.40
67822;BMP180;54434;50.096;20.082;2023-01-23T09:59:53;100540.60;;;3.40
67822;BMP180;54434;50.096;20.082;2023-01-23T10:02:34;100541.00;;;3.50
67822;BMP180;54434;50.096;20.082;2023-01-23T10:05:13;100542.80;;;3.50
67822;BMP180;54434;50.096;20.082;2023-01-23T10:08:01;100538.80;;;3.50
67822;BMP180;54434;50.096;20.082;2023-01-23T10:10:59;100542.40;;;3.50
67822;BMP180;54434;50.096;20.082;2023-01-23T10:13:50;100544.40;;;3.50
67822;BMP180;54434;50.096;20.082;2023-01-23T10:16:43;100548.20;;;3.50
67822;BMP180;54434;50.096;20.082;2023-01-23T10:19:39;100543.20;;;3.40
67822;BMP180;54434;50.096;20.082;2023-01-23T10:22:33;100537.60;;;3.30
67822;BMP180;54434;50.096;20.082;2023-01-23T10:25:17;100540.20;;;3.24
67822;BMP180;54434;50.096;20.082;2023-01-23T10:28:14;100541.20;;;3.20
67822;BMP180;54434;50.096;20.082;2023-01-23T10:30:54;100545.40;;;3.10
67822;BMP180;54434;50.096;20.082;2023-01-23T10:33:42;100546.40;;;3.00
67822;BMP180;54434;50.096;20.082;2023-01-23T10:36:26;100546.20;;;3.00
67822;BMP180;54434;50.096;20.082;2023-01-23T10:39:26;100542.00;;;2.90
67822;BMP180;54434;50.096;20.082;2023-01-23T10:42:01;100541.00;;;2.90
67822;BMP180;54434;50.096;20.082;2023-01-23T10:44:36;100541.60;;;2.90
67822;BMP180;54434;50.096;20.082;2023-01-23T10:47:22;100539.00;;;2.90
67822;BMP180;54434;50.096;20.082;2023-01-23T10:50:06;100537.00;;;2.90
67822;BMP180;54434;50.096;20.082;2023-01-23T10:52:43;100537.40;;;2.90
67822;BMP180;54434;50.096;20.082;2023-01-23T10:55:31;100533.00;;;2.90
67822;BMP180;54434;50.096;20.082;2023-01-23T10:58:25;100528.20;;;2.82
67822;BMP180;54434;50.096;20.082;2023-01-23T11:01:01;100521.00;;;2.84
67822;BMP180;54434;50.096;20.082;2023-01-23T11:03:37;100520.60;;;2.80
67822;BMP180;54434;50.096;20.082;2023-01-23T11:06:21;100518.60;;;2.80
67822;BMP180;54434;50.096;20.082;2023-01-23T11:09:00;100515.80;;;2.80
67822;BMP180;54434;50.096;20.082;2023-01-23T11:11:38;100515.60;;;2.80
67822;BMP180;54434;50.096;20.082;2023-01-23T11:14:14;100513.00;;;2.80
67822;BMP180;54434;50.096;20.082;2023-01-23T11:17:10;100511.60;;;2.80
67822;BMP180;54434;50.096;20.082;2023-01-23T11:19:48;100507.80;;;2.80
67822;BMP180;54434;50.096;20.082;2023-01-23T11:22:37;100495.60;;;2.80
67822;BMP180;54434;50.096;20.082;2023-01-23T11:25:34;100492.80;;;2.80
67822;BMP180;54434;50.096;20.082;2023-01-23T11:28:23;100496.40;;;2.80
67822;BMP180;54434;50.096;20.082;2023-01-23T11:31:04;100488.60;;;2.82
67822;BMP180;54434;50.096;20.082;2023-01-23T11:33:51;100487.60;;;2.90
67822;BMP180;54434;50.096;20.082;2023-01-23T11:36:46;100487.60;;;2.90
67822;BMP180;54434;50.096;20.082;2023-01-23T11:39:41;100485.20;;;2.90
67822;BMP180;54434;50.096;20.082;2023-01-23T11:42:18;100486.00;;;3.00
67822;BMP180;54434;50.096;20.082;2023-01-23T11:44:54;100486.60;;;3.06
67822;BMP180;54434;50.096;20.082;2023-01-23T11:47:54;100487.60;;;3.10
67822;BMP180;54434;50.096;20.082;2023-01-23T11:50:40;100485.80;;;3.10
67822;BMP180;54434;50.096;20.082;2023-01-23T11:53:34;100487.80;;;3.16
67822;BMP180;54434;50.096;20.082;2023-01-23T11:56:41;100488.40;;;3.20
67822;BMP180;54434;50.096;20.082;2023-01-23T11:59:39;100488.60;;;3.12
67822;BMP180;54434;50.096;20.082;2023-01-23T12:05:53;100482.00;;;3.16
67822;BMP180;54434;50.096;20.082;2023-01-23T12:09:01;100483.20;;;3.16
67822;BMP180;54434;50.096;20.082;2023-01-23T12:11:44;100487.80;;;3.10
67822;BMP180;54434;50.096;20.082;2023-01-23T12:14:26;100486.00;;;3.10
67822;BMP180;54434;50.096;20.082;2023-01-23T12:17:21;100489.40;;;3.10
67822;BMP180;54434;50.096;20.082;2023-01-23T12:20:16;100488.80;;;3.10
67822;BMP180;54434;50.096;20.082;2023-01-23T12:23:19;100484.80;;;3.10
67822;BMP180;54434;50.096;20.082;2023-01-23T12:26:05;100492.20;;;3.00
67822;BMP180;54434;50.096;20.082;2023-01-23T12:29:12;100488.00;;;3.02
67822;BMP180;54434;50.096;20.082;2023-01-23T12:32:07;100488.00;;;3.04
67822;BMP180;54434;50.096;20.082;2023-01-23T12:35:05;100496.20;;;3.04
67822;BMP180;54434;50.096;20.082;2023-01-23T12:38:00;100497.00;;;3.02
67822;BMP180;54434;50.096;20.082;2023-01-23T12:40:45;100491.40;;;3.02
67822;BMP180;54434;50.096;20.082;2023-01-23T12:43:32;100490.80;;;3.00
67822;BMP180;54434;50.096;20.082;2023-01-23T12:46:13;100495.20;;;3.00
67822;BMP180;54434;50.096;20.082;2023-01-23T12:48:54;100493.40;;;3.00
67822;BMP180;54434;50.096;20.082;2023-01-23T12:51:37;100491.00;;;3.00
67822;BMP180;54434;50.096;20.082;2023-01-23T12:54:19;100493.00;;;3.00
67822;BMP180;54434;50.096;20.082;2023-01-23T12:56:58;100496.40;;;3.00
67822;BMP180;54434;50.096;20.082;2023-01-23T12:59:48;100500.80;;;3.00
67822;BMP180;54434;50.096;20.082;2023-01-23T13:02:36;100501.00;;;3.04
67822;BMP180;54434;50.096;20.082;2023-01-23T13:05:20;100498.40;;;3.10
67822;BMP180;54434;50.096;20.082;2023-01-23T13:08:04;100501.40;;;3.10
67822;BMP180;54434;50.096;20.082;2023-01-23T13:11:03;100500.00;;;3.08
67822;BMP180;54434;50.096;20.082;2023-01-23T13:13:57;100501.00;;;3.10
67822;BMP180;54434;50.096;20.082;2023-01-23T13:16:34;100496.40;;;3.10
67822;BMP180;54434;50.096;20.082;2023-01-23T13:19:25;100495.80;;;3.00
67822;BMP180;54434;50.096;20.082;2023-01-23T13:22:26;100500.60;;;3.00
67822;BMP180;54434;50.096;20.082;2023-01-23T13:25:12;100500.80;;;3.00
67822;BMP180;54434;50.096;20.082;2023-01-23T13:27:54;100501.40;;;2.94
67822;BMP180;54434;50.096;20.082;2023-01-23T13:30:42;100498.80;;;2.90
67822;BMP180;54434;50.096;20.082;2023-01-23T13:33:51;100500.80;;;2.88
67822;BMP180;54434;50.096;20.082;2023-01-23T13:36:38;100503.80;;;2.80
67822;BMP180;54434;50.096;20.082;2023-01-23T13:39:29;100508.80;;;2.80
67822;BMP180;54434;50.096;20.082;2023-01-23T13:42:44;100508.60;;;2.80
67822;BMP180;54434;50.096;20.082;2023-01-23T13:45:29;100508.20;;;2.80
67822;BMP180;54434;50.096;20.082;2023-01-23T13:51:48;100515.80;;;2.80
67822;BMP180;54434;50.096;20.082;2023-01-23T13:54:37;100514.60;;;2.80
67822;BMP180;54434;50.096;20.082;2023-01-23T14:00:37;100517.80;;;2.80
67822;BMP180;54434;50.096;20.082;2023-01-23T14:03:35;100518.20;;;2.80
67822;BMP180;54434;50.096;20.082;2023-01-23T14:06:43;100514.60;;;2.80
67822;BMP180;54434;50.096;20.082;2023-01-23T14:09:35;100516.00;;;2.80
67822;BMP180;54434;50.096;20.082;2023-01-23T14:12:32;100514.40;;;2.70
67822;BMP180;54434;50.096;20.082;2023-01-23T14:15:26;100519.20;;;2.70
67822;BMP180;54434;50.096;20.082;2023-01-23T14:18:38;100521.00;;;2.70
67822;BMP180;54434;50.096;20.082;2023-01-23T14:29:39;100526.20;;;2.60
67822;BMP180;54434;50.096;20.082;2023-01-23T14:32:43;100528.80;;;2.58
67822;BMP180;54434;50.096;20.082;2023-01-23T14:35:36;100527.20;;;2.50
67822;BMP180;54434;50.096;20.082;2023-01-23T14:38:26;100530.00;;;2.50
67822;BMP180;54434;50.096;20.082;2023-01-23T14:41:06;100532.40;;;2.50
67822;BMP180;54434;50.096;20.082;2023-01-23T14:43:44;100534.80;;;2.50
67822;BMP180;54434;50.096;20.082;2023-01-23T14:46:33;100533.60;;;2.46
67822;BMP180;54434;50.096;20.082;2023-01-23T14:49:14;100533.60;;;2.44
67822;BMP180;54434;50.096;20.082;2023-01-23T14:52:02;100530.00;;;2.40
67822;BMP180;54434;50.096;20.082;2023-01-23T14:54:44;100531.20;;;2.40
67822;BMP180;54434;50.096;20.082;2023-01-23T14:57:30;100529.20;;;2.40
67822;BMP180;54434;50.096;20.082;2023-01-23T15:00:15;100528.80;;;2.40
67822;BMP180;54434;50.096;20.082;2023-01-23T15:02:54;100530.60;;;2.40
67822;BMP180;54434;50.096;20.082;2023-01-23T15:05:31;100529.40;;;2.38
67822;BMP180;54434;50.096;20.082;2023-01-23T15:08:22;100532.40;;;2.30
67822;BMP180;54434;50.096;20.082;2023-01-23T15:11:01;100533.80;;;2.30
67822;BMP180;54434;50.096;20.082;2023-01-23T15:13:47;100532.20;;;2.30
67822;BMP180;54434;50.096;20.082;2023-01-23T15:16:29;100539.00;;;2.30
67822;BMP180;54434;50.096;20.082;2023-01-23T15:19:19;100535.20;;;2.30
67822;BMP180;54434;50.096;20.082;2023-01-23T15:22:18;100539.60;;;2.30
67822;BMP180;54434;50.096;20.082;2023-01-23T15:24:56;100546.80;;;2.30
67822;BMP180;54434;50.096;20.082;2023-01-23T15:27:52;100544.00;;;2.20
67822;BMP180;54434;50.096;20.082;2023-01-23T15:30:45;100542.60;;;2.20